Time;durP1;ratioP1;P1;durP2;ratioP2;P2;SDS_P1;SDS_P2;PMS_P1;PMS_P2;Temp;Humidity;BMP_temperature;BMP_pressure;BME280_temperature;BME280_humidity;BME280_pressure;Samples;Min_cycle;Max_cycle;Signal;HPM_P1;HPM_P2
2022/07/23 00:00:56;;;;;;;3.53;2.40;;;;;;;;;;5007608;28;20029;-76
2022/07/23 00:03:21;;;;;;;5.25;3.22;;;;;;;;;;5004527;28;20177;-76
2022/07/23 00:05:47;;;;;;;4.18;3.35;;;;;;;;;;5004557;28;20029;-77
2022/07/23 00:08:12;;;;;;;5.03;3.80;;;;;;;;;;5010330;28;20080;-76
2022/07/23 00:10:38;;;;;;;4.78;3.63;;;;;;;;;;5006552;28;20041;-76
2022/07/23 00:13:03;;;;;;;5.85;3.88;;;;;;;;;;5007601;28;20032;-76
2022/07/23 00:15:29;;;;;;;4.25;3.30;;;;;;;;;;5006286;28;20037;-76
2022/07/23 00:17:54;;;;;;;5.80;3.50;;;;;;;;;;5006369;28;20457;-76
2022/07/23 00:20:20;;;;;;;4.35;3.35;;;;;;;;;;5009176;28;20026;-76
2022/07/23 00:22:53;;;;;;;4.82;3.67;;;;;;;;;;5006831;28;20441;-76
2022/07/23 00:25:23;;;;;;;4.85;3.70;;;;;;;;;;5006778;28;20030;-76
2022/07/23 00:27:48;;;;;;;4.13;3.13;;;;;;;;;;5008102;28;20029;-76
2022/07/23 00:30:14;;;;;;;4.35;3.20;;;;;;;;;;5007088;28;20022;-76
2022/07/23 00:32:50;;;;;;;4.35;3.17;;;;;;;;;;5007028;28;20120;-76
2022/07/23 00:35:19;;;;;;;4.53;2.85;;;;;;;;;;5002136;28;20065;-76
2022/07/23 00:37:44;;;;;;;4.28;3.30;;;;;;;;;;5006014;28;20029;-77
2022/07/23 00:40:11;;;;;;;4.43;3.15;;;;;;;;;;5005600;28;20022;-76
2022/07/23 00:42:36;;;;;;;4.47;3.28;;;;;;;;;;5009910;28;20030;-76
2022/07/23 00:45:03;;;;;;;4.30;2.70;;;;;;;;;;5018089;28;20371;-76
2022/07/23 00:47:28;;;;;;;3.88;3.03;;;;;;;;;;5007232;28;20430;-76
2022/07/23 00:49:53;;;;;;;4.53;3.58;;;;;;;;;;5004108;28;20038;-76
2022/07/23 00:52:19;;;;;;;5.15;3.20;;;;;;;;;;5005324;28;20033;-76
2022/07/23 00:54:44;;;;;;;4.47;2.85;;;;;;;;;;5009308;28;20401;-76
2022/07/23 00:57:10;;;;;;;4.00;2.97;;;;;;;;;;5006633;28;20021;-76
2022/07/23 00:59:35;;;;;;;5.53;3.20;;;;;;;;;;5005905;28;20113;-77
2022/07/23 01:02:00;;;;;;;4.55;3.08;;;;;;;;;;5005006;28;20079;-76
2022/07/23 01:04:26;;;;;;;4.72;3.20;;;;;;;;;;5002726;28;20030;-77
2022/07/23 01:06:51;;;;;;;5.55;3.40;;;;;;;;;;5004257;28;20061;-76
2022/07/23 01:09:17;;;;;;;4.68;3.00;;;;;;;;;;5005782;28;20092;-76
2022/07/23 01:11:42;;;;;;;4.65;3.30;;;;;;;;;;5006707;28;20057;-76
2022/07/23 01:14:12;;;;;;;3.50;2.85;;;;;;;;;;5008800;28;20470;-75
2022/07/23 01:16:38;;;;;;;5.10;3.40;;;;;;;;;;5007277;28;20390;-77
2022/07/23 01:19:06;;;;;;;5.95;2.95;;;;;;;;;;5001721;28;20072;-76
2022/07/23 01:21:35;;;;;;;5.25;3.17;;;;;;;;;;5006073;28;20490;-76
2022/07/23 01:24:01;;;;;;;4.45;3.20;;;;;;;;;;5004650;28;20064;-77
2022/07/23 01:26:26;;;;;;;4.53;3.00;;;;;;;;;;5001886;28;20033;-77
2022/07/23 01:28:52;;;;;;;5.47;3.15;;;;;;;;;;5004722;28;20512;-77
2022/07/23 01:31:17;;;;;;;4.30;3.35;;;;;;;;;;4998260;28;20095;-76
2022/07/23 01:33:43;;;;;;;4.43;3.33;;;;;;;;;;5008689;28;20025;-76
2022/07/23 01:36:09;;;;;;;5.75;3.70;;;;;;;;;;5004400;28;20049;-76
2022/07/23 01:38:34;;;;;;;6.40;3.83;;;;;;;;;;4996688;28;20021;-76
2022/07/23 01:40:59;;;;;;;6.03;3.30;;;;;;;;;;5001793;28;20026;-76
2022/07/23 01:43:25;;;;;;;3.85;2.90;;;;;;;;;;5002774;28;20092;-76
2022/07/23 01:45:50;;;;;;;4.65;3.40;;;;;;;;;;5000520;28;20052;-77
2022/07/23 01:48:16;;;;;;;4.57;3.25;;;;;;;;;;4997485;28;20030;-76
2022/07/23 01:50:41;;;;;;;4.93;3.25;;;;;;;;;;5005290;28;20034;-76
2022/07/23 01:53:07;;;;;;;5.35;3.25;;;;;;;;;;5005124;28;20144;-77
2022/07/23 01:55:32;;;;;;;4.07;2.80;;;;;;;;;;5008958;28;20045;-76
2022/07/23 01:57:58;;;;;;;5.72;3.38;;;;;;;;;;4994946;28;20040;-76
2022/07/23 02:00:23;;;;;;;5.15;3.15;;;;;;;;;;5001465;28;20541;-76
2022/07/23 02:02:48;;;;;;;3.95;2.75;;;;;;;;;;5002988;28;20410;-76
2022/07/23 02:05:14;;;;;;;4.20;2.95;;;;;;;;;;5015775;28;20021;-76
2022/07/23 02:07:39;;;;;;;4.20;2.92;;;;;;;;;;4997854;28;20533;-76
2022/07/23 02:10:05;;;;;;;4.68;2.70;;;;;;;;;;5002993;28;20092;-77
2022/07/23 02:12:31;;;;;;;4.95;2.88;;;;;;;;;;4995722;28;20026;-76
2022/07/23 02:14:56;;;;;;;4.53;2.63;;;;;;;;;;5004882;28;20544;-76
2022/07/23 02:17:21;;;;;;;4.20;2.78;;;;;;;;;;4996671;28;20030;-76
2022/07/23 02:19:47;;;;;;;4.43;3.25;;;;;;;;;;5000106;28;20034;-76
2022/07/23 02:22:12;;;;;;;4.18;2.80;;;;;;;;;;4998900;28;20026;-75
2022/07/23 02:24:38;;;;;;;5.90;3.10;;;;;;;;;;4996959;28;20042;-76
2022/07/23 02:27:03;;;;;;;5.90;3.30;;;;;;;;;;4996782;28;20029;-76
2022/07/23 02:29:28;;;;;;;4.38;3.10;;;;;;;;;;4999505;28;20049;-76
2022/07/23 02:31:54;;;;;;;4.20;2.83;;;;;;;;;;5002657;28;20479;-77
2022/07/23 02:34:19;;;;;;;4.53;2.70;;;;;;;;;;4998501;28;20090;-76
2022/07/23 02:36:45;;;;;;;3.55;2.50;;;;;;;;;;5002783;28;20057;-77
2022/07/23 02:39:11;;;;;;;4.45;2.75;;;;;;;;;;5002226;28;20034;-76
2022/07/23 02:41:36;;;;;;;7.13;3.08;;;;;;;;;;5004459;28;20025;-76
2022/07/23 02:44:02;;;;;;;4.70;2.90;;;;;;;;;;5000812;28;20034;-76
2022/07/23 02:46:27;;;;;;;4.63;2.67;;;;;;;;;;5002336;28;20030;-76
2022/07/23 02:48:52;;;;;;;4.72;3.00;;;;;;;;;;5002816;28;20029;-76
2022/07/23 02:51:18;;;;;;;4.13;2.80;;;;;;;;;;4997563;28;20026;-75
2022/07/23 02:53:43;;;;;;;4.47;2.63;;;;;;;;;;4997043;28;20033;-76
2022/07/23 02:56:09;;;;;;;4.82;3.08;;;;;;;;;;4993073;28;20513;-76
2022/07/23 02:58:34;;;;;;;5.60;2.88;;;;;;;;;;4999405;28;20125;-77
2022/07/23 03:01:00;;;;;;;3.42;2.33;;;;;;;;;;4997815;28;20028;-76
2022/07/23 03:03:25;;;;;;;3.30;2.40;;;;;;;;;;5002093;28;20569;-76
2022/07/23 03:05:50;;;;;;;4.07;2.80;;;;;;;;;;5002959;28;20136;-76
2022/07/23 03:08:16;;;;;;;3.53;2.65;;;;;;;;;;5001728;28;20034;-76
2022/07/23 03:10:41;;;;;;;4.70;2.78;;;;;;;;;;5001450;28;20033;-77
2022/07/23 03:13:07;;;;;;;4.10;3.00;;;;;;;;;;5001799;28;20103;-76
2022/07/23 03:15:32;;;;;;;3.50;2.53;;;;;;;;;;4999645;28;20510;-77
2022/07/23 03:17:57;;;;;;;3.40;2.55;;;;;;;;;;5004719;28;20033;-76
2022/07/23 03:20:23;;;;;;;3.75;2.28;;;;;;;;;;4995552;28;20071;-76
2022/07/23 03:22:48;;;;;;;3.65;2.40;;;;;;;;;;4995181;28;20041;-76
2022/07/23 03:25:13;;;;;;;5.72;2.63;;;;;;;;;;4994475;28;20490;-76
2022/07/23 03:27:39;;;;;;;5.53;2.45;;;;;;;;;;4998799;28;20622;-76
2022/07/23 03:30:05;;;;;;;3.28;2.50;;;;;;;;;;4994730;28;20026;-77
2022/07/23 03:32:31;;;;;;;4.20;2.70;;;;;;;;;;5002750;28;20088;-76
2022/07/23 03:34:57;;;;;;;5.20;2.85;;;;;;;;;;4997407;28;20053;-76
2022/07/23 03:37:22;;;;;;;3.78;2.50;;;;;;;;;;5000044;28;20671;-77
2022/07/23 03:39:47;;;;;;;3.45;2.33;;;;;;;;;;4988558;28;20033;-76
2022/07/23 03:42:13;;;;;;;4.65;2.88;;;;;;;;;;4999380;28;20018;-76
2022/07/23 03:44:38;;;;;;;4.47;2.58;;;;;;;;;;4999170;28;20042;-76
2022/07/23 03:47:05;;;;;;;4.13;2.40;;;;;;;;;;4998187;28;20022;-76
2022/07/23 03:49:30;;;;;;;4.20;2.50;;;;;;;;;;5000872;28;20096;-75
2022/07/23 03:51:56;;;;;;;3.40;2.60;;;;;;;;;;5004588;28;20030;-76
2022/07/23 03:54:21;;;;;;;4.30;2.35;;;;;;;;;;5007138;28;20568;-76
2022/07/23 03:56:46;;;;;;;3.58;2.53;;;;;;;;;;5002978;28;20064;-76
2022/07/23 03:59:12;;;;;;;3.97;2.50;;;;;;;;;;5007727;28;20033;-76
2022/07/23 04:01:37;;;;;;;4.22;2.40;;;;;;;;;;4998386;28;20022;-76
2022/07/23 04:04:03;;;;;;;4.22;2.60;;;;;;;;;;5003143;28;20117;-76
2022/07/23 04:06:29;;;;;;;5.32;2.50;;;;;;;;;;4997065;28;20025;-76
2022/07/23 04:08:54;;;;;;;6.28;3.05;;;;;;;;;;4998811;28;20076;-76
2022/07/23 04:11:20;;;;;;;3.83;2.85;;;;;;;;;;5003275;28;20034;-77
2022/07/23 04:13:46;;;;;;;3.63;2.35;;;;;;;;;;5002902;28;20036;-76
2022/07/23 04:16:11;;;;;;;4.00;2.60;;;;;;;;;;5004602;28;20032;-76
2022/07/23 04:18:37;;;;;;;4.95;2.60;;;;;;;;;;5000818;28;20037;-76
2022/07/23 04:21:02;;;;;;;3.63;2.40;;;;;;;;;;5002337;28;20076;-77
2022/07/23 04:23:28;;;;;;;4.65;2.45;;;;;;;;;;5003491;28;20438;-76
2022/07/23 04:25:53;;;;;;;5.97;2.60;;;;;;;;;;5017943;28;20036;-76
2022/07/23 04:28:19;;;;;;;3.63;2.40;;;;;;;;;;5000347;28;20478;-76
2022/07/23 04:30:44;;;;;;;5.10;2.60;;;;;;;;;;5003718;28;20084;-77
2022/07/23 04:33:09;;;;;;;4.60;2.30;;;;;;;;;;5001836;28;20034;-76
2022/07/23 04:35:36;;;;;;;3.97;2.83;;;;;;;;;;5003112;28;20077;-76
2022/07/23 04:38:02;;;;;;;4.82;2.63;;;;;;;;;;4999312;28;20036;-76
2022/07/23 04:40:28;;;;;;;3.88;2.85;;;;;;;;;;4995590;28;20488;-76
2022/07/23 04:42:54;;;;;;;4.38;2.50;;;;;;;;;;4996223;28;20034;-76
2022/07/23 04:45:19;;;;;;;4.00;2.40;;;;;;;;;;5004357;28;20105;-76
2022/07/23 04:47:45;;;;;;;4.85;2.65;;;;;;;;;;4996486;28;20022;-76
2022/07/23 04:50:10;;;;;;;3.40;2.40;;;;;;;;;;5004566;28;20557;-77
2022/07/23 04:52:36;;;;;;;5.15;2.70;;;;;;;;;;4998712;28;20038;-77
2022/07/23 04:55:01;;;;;;;5.43;2.53;;;;;;;;;;5005789;28;20025;-76
2022/07/23 04:57:27;;;;;;;3.85;2.53;;;;;;;;;;4998698;28;20120;-76
2022/07/23 04:59:52;;;;;;;4.28;2.55;;;;;;;;;;4999410;28;20030;-77
2022/07/23 05:02:17;;;;;;;3.88;2.65;;;;;;;;;;4996740;28;20044;-76
2022/07/23 05:04:43;;;;;;;4.50;2.70;;;;;;;;;;4994444;28;20038;-77
2022/07/23 05:07:08;;;;;;;4.28;2.80;;;;;;;;;;4999222;28;20018;-76
2022/07/23 05:09:34;;;;;;;4.10;2.80;;;;;;;;;;4996119;28;20030;-76
2022/07/23 05:11:59;;;;;;;3.65;2.50;;;;;;;;;;5000995;28;20088;-77
2022/07/23 05:14:25;;;;;;;8.52;2.97;;;;;;;;;;5002616;28;20049;-77
2022/07/23 05:16:50;;;;;;;3.88;2.88;;;;;;;;;;4999254;28;20478;-77
2022/07/23 05:19:16;;;;;;;3.85;2.90;;;;;;;;;;4999313;28;20087;-76
2022/07/23 05:21:41;;;;;;;6.03;3.40;;;;;;;;;;4996925;28;20033;-76
2022/07/23 05:24:06;;;;;;;4.20;3.20;;;;;;;;;;4998739;28;20025;-76
2022/07/23 05:26:32;;;;;;;5.63;3.45;;;;;;;;;;4999333;28;20675;-76
2022/07/23 05:28:57;;;;;;;4.82;3.25;;;;;;;;;;4999373;28;20026;-76
2022/07/23 05:31:23;;;;;;;5.68;3.17;;;;;;;;;;5004298;28;20113;-76
2022/07/23 05:33:48;;;;;;;5.43;3.20;;;;;;;;;;5003308;28;20452;-77
2022/07/23 05:36:14;;;;;;;4.47;3.15;;;;;;;;;;5001813;28;20042;-76
2022/07/23 05:38:39;;;;;;;6.40;3.75;;;;;;;;;;5005964;28;20030;-76
2022/07/23 05:41:05;;;;;;;5.65;3.28;;;;;;;;;;4999854;28;20164;-76
2022/07/23 05:43:30;;;;;;;7.15;3.95;;;;;;;;;;5000399;28;20517;-76
2022/07/23 05:45:56;;;;;;;5.60;3.20;;;;;;;;;;5003880;28;20061;-76
2022/07/23 05:48:21;;;;;;;5.38;3.20;;;;;;;;;;5008412;28;20034;-76
2022/07/23 05:50:47;;;;;;;4.35;3.25;;;;;;;;;;5003348;28;20029;-76
2022/07/23 05:53:13;;;;;;;4.63;3.80;;;;;;;;;;5006359;28;20091;-77
2022/07/23 05:55:38;;;;;;;6.18;4.10;;;;;;;;;;5005899;28;20117;-77
2022/07/23 05:58:03;;;;;;;6.40;3.83;;;;;;;;;;5004589;28;20482;-76
2022/07/23 06:00:29;;;;;;;4.70;3.60;;;;;;;;;;5002647;28;20028;-76
2022/07/23 06:02:55;;;;;;;4.75;3.88;;;;;;;;;;4999360;28;20038;-76
2022/07/23 06:05:20;;;;;;;4.40;3.42;;;;;;;;;;4998177;28;20227;-76
2022/07/23 06:07:46;;;;;;;5.28;3.92;;;;;;;;;;5006278;28;20444;-76
2022/07/23 06:10:11;;;;;;;5.57;3.92;;;;;;;;;;5011733;28;20030;-77
2022/07/23 06:12:37;;;;;;;5.97;3.75;;;;;;;;;;5002118;28;22588;-76
2022/07/23 06:15:03;;;;;;;5.32;3.90;;;;;;;;;;4996095;28;20030;-76
2022/07/23 06:17:29;;;;;;;5.60;4.05;;;;;;;;;;5005238;28;20398;-76
2022/07/23 06:19:55;;;;;;;8.07;4.13;;;;;;;;;;4999598;28;20029;-76
2022/07/23 06:22:21;;;;;;;5.25;3.97;;;;;;;;;;5002735;28;20516;-76
2022/07/23 06:24:47;;;;;;;4.80;3.17;;;;;;;;;;4996856;28;20037;-76
2022/07/23 06:27:12;;;;;;;8.50;3.67;;;;;;;;;;5000517;28;20033;-77
2022/07/23 06:29:38;;;;;;;5.82;3.58;;;;;;;;;;5000924;28;20025;-76
2022/07/23 06:32:04;;;;;;;4.90;3.83;;;;;;;;;;5000409;28;20653;-76
2022/07/23 06:34:29;;;;;;;5.05;3.70;;;;;;;;;;5005823;28;20924;-77
2022/07/23 06:36:54;;;;;;;5.72;3.40;;;;;;;;;;4999038;28;20486;-76
2022/07/23 06:39:20;;;;;;;4.30;3.03;;;;;;;;;;5011954;28;20608;-77
2022/07/23 06:41:45;;;;;;;4.28;2.80;;;;;;;;;;5002602;28;20026;-76
2022/07/23 06:44:10;;;;;;;4.78;2.60;;;;;;;;;;5003739;28;20035;-77
2022/07/23 06:46:36;;;;;;;3.10;2.40;;;;;;;;;;4997492;28;20382;-77
2022/07/23 06:49:02;;;;;;;4.57;2.65;;;;;;;;;;4996175;28;20033;-76
2022/07/23 06:51:27;;;;;;;3.67;2.20;;;;;;;;;;4994049;28;20057;-77
2022/07/23 06:53:52;;;;;;;3.75;2.33;;;;;;;;;;4999835;28;20032;-76
2022/07/23 06:56:18;;;;;;;3.70;2.10;;;;;;;;;;5002038;28;20037;-76
2022/07/23 06:58:43;;;;;;;3.88;2.20;;;;;;;;;;4996743;28;20042;-76
2022/07/23 07:01:09;;;;;;;3.97;2.00;;;;;;;;;;4997868;28;20018;-77
2022/07/23 07:03:34;;;;;;;5.82;2.00;;;;;;;;;;4999063;28;20089;-77
2022/07/23 07:06:00;;;;;;;4.45;1.75;;;;;;;;;;5000083;28;20084;-76
2022/07/23 07:08:25;;;;;;;3.25;1.92;;;;;;;;;;5001552;28;20034;-77
2022/07/23 07:10:50;;;;;;;3.08;2.00;;;;;;;;;;5001546;28;20053;-77
2022/07/23 07:13:16;;;;;;;3.30;2.10;;;;;;;;;;5000428;28;20068;-76
2022/07/23 07:15:41;;;;;;;5.00;2.13;;;;;;;;;;5003657;28;20034;-76
2022/07/23 07:18:07;;;;;;;6.95;2.60;;;;;;;;;;5002338;28;20104;-77
2022/07/23 07:20:32;;;;;;;4.57;2.45;;;;;;;;;;5004317;28;20021;-76
2022/07/23 07:22:58;;;;;;;3.50;2.40;;;;;;;;;;5002110;28;20113;-76
2022/07/23 07:25:23;;;;;;;4.22;2.88;;;;;;;;;;5004405;28;20192;-76
2022/07/23 07:27:49;;;;;;;6.40;2.45;;;;;;;;;;5015548;28;20045;-75
2022/07/23 07:30:14;;;;;;;4.72;2.90;;;;;;;;;;5003946;28;20029;-77
2022/07/23 07:32:40;;;;;;;4.43;2.42;;;;;;;;;;5003050;28;20038;-77
2022/07/23 07:35:06;;;;;;;4.55;2.70;;;;;;;;;;5004883;28;20509;-77
2022/07/23 07:37:32;;;;;;;5.25;2.60;;;;;;;;;;5001636;28;20389;-76
2022/07/23 07:39:57;;;;;;;4.72;2.58;;;;;;;;;;5000118;28;20025;-75
2022/07/23 07:42:22;;;;;;;4.55;2.70;;;;;;;;;;5004851;28;20045;-77
2022/07/23 07:44:48;;;;;;;4.40;2.55;;;;;;;;;;5003598;28;20572;-76
2022/07/23 07:47:15;;;;;;;4.65;2.40;;;;;;;;;;4999369;28;20047;-76
2022/07/23 07:49:41;;;;;;;4.50;2.50;;;;;;;;;;5002841;28;20030;-78
2022/07/23 07:52:07;;;;;;;5.32;2.35;;;;;;;;;;4984455;28;20128;-78
2022/07/23 07:54:32;;;;;;;6.20;2.45;;;;;;;;;;4987265;28;20033;-75
2022/07/23 07:56:58;;;;;;;5.15;2.55;;;;;;;;;;4996417;28;20061;-81
2022/07/23 07:59:23;;;;;;;5.18;2.30;;;;;;;;;;4993215;28;20029;-75
2022/07/23 08:01:49;;;;;;;5.72;2.25;;;;;;;;;;4993570;28;20026;-80
2022/07/23 08:04:14;;;;;;;4.25;2.30;;;;;;;;;;4992518;28;20458;-79
2022/07/23 08:06:39;;;;;;;3.78;2.03;;;;;;;;;;4994296;28;20757;-77
2022/07/23 08:09:05;;;;;;;5.13;2.35;;;;;;;;;;5008304;28;20129;-77
2022/07/23 08:11:30;;;;;;;6.28;2.40;;;;;;;;;;4984333;28;20058;-79
2022/07/23 08:13:56;;;;;;;3.72;2.03;;;;;;;;;;4988299;28;20030;-84
2022/07/23 08:16:21;;;;;;;5.80;2.85;;;;;;;;;;4997852;28;20089;-74
2022/07/23 08:18:47;;;;;;;4.93;2.30;;;;;;;;;;5001171;28;20657;-77
2022/07/23 08:21:12;;;;;;;4.07;2.22;;;;;;;;;;5000743;28;20444;-87
2022/07/23 08:23:37;;;;;;;3.80;2.20;;;;;;;;;;4998839;28;20755;-76
2022/07/23 08:26:03;;;;;;;2.83;2.15;;;;;;;;;;4997064;28;20030;-74
2022/07/23 08:28:32;;;;;;;4.05;2.20;;;;;;;;;;4999953;28;20052;-80
2022/07/23 08:30:58;;;;;;;5.40;2.75;;;;;;;;;;4999065;28;20026;-85
2022/07/23 08:33:23;;;;;;;3.80;2.28;;;;;;;;;;5008344;28;20040;-74
2022/07/23 08:35:52;;;;;;;5.80;2.40;;;;;;;;;;5009278;28;20042;-80
2022/07/23 08:38:20;;;;;;;4.07;2.20;;;;;;;;;;5014063;28;20025;-88
2022/07/23 08:40:52;;;;;;;4.75;3.15;;;;;;;;;;5006799;28;20034;-91
2022/07/23 08:43:21;;;;;;;4.15;2.83;;;;;;;;;;5005193;28;20022;-74
2022/07/23 08:45:51;;;;;;;4.80;2.83;;;;;;;;;;5008341;28;20057;-77
2022/07/23 08:48:21;;;;;;;4.78;3.05;;;;;;;;;;5006603;28;20025;-88
2022/07/23 08:50:49;;;;;;;4.25;2.53;;;;;;;;;;5010545;28;20040;-75
2022/07/23 08:53:16;;;;;;;3.85;2.90;;;;;;;;;;5007958;28;20099;-76
2022/07/23 08:55:46;;;;;;;3.95;2.38;;;;;;;;;;5005492;28;20029;-77
2022/07/23 08:58:12;;;;;;;6.53;3.67;;;;;;;;;;4999818;28;20398;-76
2022/07/23 09:00:37;;;;;;;7.05;2.80;;;;;;;;;;5005638;28;20033;-76
2022/07/23 09:03:03;;;;;;;4.60;2.60;;;;;;;;;;5003992;28;20026;-76
2022/07/23 09:05:28;;;;;;;4.82;3.30;;;;;;;;;;5012999;28;20025;-76
2022/07/23 09:08:09;;;;;;;5.15;2.50;;;;;;;;;;5013399;28;20026;-76
2022/07/23 09:10:48;;;;;;;5.65;3.20;;;;;;;;;;5001854;28;20096;-76
2022/07/23 09:13:32;;;;;;;4.82;3.05;;;;;;;;;;5012738;28;20045;-76
2022/07/23 09:16:05;;;;;;;4.90;2.90;;;;;;;;;;5017967;28;20049;-76
2022/07/23 09:18:44;;;;;;;;;;;;;;;;;;5014588;28;20044;-76
2022/07/23 09:21:09;;;;;;;4.57;3.28;;;;;;;;;;5013587;28;20285;-77
2022/07/23 09:23:57;;;;;;;5.15;3.22;;;;;;;;;;5014544;28;20042;-77
2022/07/23 09:26:29;;;;;;;4.07;2.53;;;;;;;;;;5008571;28;20038;-77
2022/07/23 09:29:03;;;;;;;3.55;2.10;;;;;;;;;;5013097;28;20033;-77
2022/07/23 09:31:43;;;;;;;5.00;2.35;;;;;;;;;;5014420;28;20686;-76
2022/07/23 09:34:16;;;;;;;5.68;3.65;;;;;;;;;;5011986;28;20022;-76
2022/07/23 09:36:42;;;;;;;5.07;2.90;;;;;;;;;;5012285;28;20532;-76
2022/07/23 09:39:09;;;;;;;5.20;3.20;;;;;;;;;;5013253;28;20042;-75
2022/07/23 09:41:37;;;;;;;5.32;3.10;;;;;;;;;;5012907;28;20482;-76
2022/07/23 09:44:10;;;;;;;4.25;3.13;;;;;;;;;;5013424;28;20060;-76
2022/07/23 09:46:36;;;;;;;4.82;3.10;;;;;;;;;;5003198;28;20029;-76
2022/07/23 09:49:11;;;;;;;5.65;3.15;;;;;;;;;;5014195;28;20032;-76
2022/07/23 09:51:48;;;;;;;3.83;2.40;;;;;;;;;;5014581;28;20026;-76
2022/07/23 09:54:26;;;;;;;3.75;2.33;;;;;;;;;;5012357;28;20032;-77
2022/07/23 09:56:53;;;;;;;4.75;2.53;;;;;;;;;;5022428;28;20060;-76
2022/07/23 09:59:31;;;;;;;3.50;1.90;;;;;;;;;;5014216;28;20036;-76
2022/07/23 10:01:59;;;;;;;4.15;2.00;;;;;;;;;;5011091;28;20454;-76
2022/07/23 10:04:26;;;;;;;4.38;2.20;;;;;;;;;;5013191;28;20029;-76
2022/07/23 10:06:54;;;;;;;4.15;1.88;;;;;;;;;;5012716;28;20057;-76
2022/07/23 10:09:26;;;;;;;4.53;2.47;;;;;;;;;;5013222;28;20445;-77
2022/07/23 10:11:54;;;;;;;3.70;1.90;;;;;;;;;;5010541;28;20060;-76
2022/07/23 10:14:20;;;;;;;2.88;2.08;;;;;;;;;;5012585;28;20036;-77
2022/07/23 10:16:47;;;;;;;3.47;2.17;;;;;;;;;;5010415;28;20025;-77
2022/07/23 10:19:13;;;;;;;6.10;2.70;;;;;;;;;;5009317;28;20025;-78
2022/07/23 10:21:52;;;;;;;3.75;2.40;;;;;;;;;;5009345;28;20091;-76
2022/07/23 10:24:45;;;;;;;5.10;2.97;;;;;;;;;;5009916;28;20036;-76
2022/07/23 10:27:51;;;;;;;3.83;2.47;;;;;;;;;;5013189;28;20022;-76
2022/07/23 10:30:25;;;;;;;6.22;2.60;;;;;;;;;;5002595;28;20494;-76
2022/07/23 10:33:14;;;;;;;4.65;2.42;;;;;;;;;;5011806;28;20022;-76
2022/07/23 10:36:02;;;;;;;4.40;2.53;;;;;;;;;;5011864;28;20406;-76
2022/07/23 10:38:43;;;;;;;4.18;1.80;;;;;;;;;;5008931;28;20370;-76
2022/07/23 10:41:08;;;;;;;5.57;3.30;;;;;;;;;;5008339;28;20108;-76
2022/07/23 10:43:34;;;;;;;3.90;2.55;;;;;;;;;;5011999;28;20033;-76
2022/07/23 10:46:27;;;;;;;3.83;2.50;;;;;;;;;;5010546;28;20469;-76
2022/07/23 10:49:25;;;;;;;4.20;2.38;;;;;;;;;;5011464;28;20021;-76
2022/07/23 10:52:26;;;;;;;4.82;3.10;;;;;;;;;;5011804;28;20092;-76
2022/07/23 10:55:16;;;;;;;4.20;2.47;;;;;;;;;;5011259;28;20096;-76
2022/07/23 10:57:49;;;;;;;5.13;2.35;;;;;;;;;;5023644;28;20022;-76
2022/07/23 11:00:17;;;;;;;4.75;1.92;;;;;;;;;;5016902;28;20026;-76
2022/07/23 11:02:45;;;;;;;5.13;2.70;;;;;;;;;;5005646;28;20034;-76
2022/07/23 11:05:23;;;;;;;6.05;3.30;;;;;;;;;;5011043;28;20084;-76
2022/07/23 11:08:03;;;;;;;4.03;2.47;;;;;;;;;;5005168;28;20026;-77
2022/07/23 11:10:45;;;;;;;3.38;2.08;;;;;;;;;;5009292;28;20033;-76
2022/07/23 11:13:22;;;;;;;2.95;1.98;;;;;;;;;;5010175;28;20089;-76
2022/07/23 11:16:04;;;;;;;3.33;2.30;;;;;;;;;;5012651;28;20076;-76
2022/07/23 11:18:46;;;;;;;3.42;2.10;;;;;;;;;;5010725;28;20034;-76
2022/07/23 11:21:26;;;;;;;4.20;2.33;;;;;;;;;;5004592;28;20019;-77
2022/07/23 11:24:08;;;;;;;2.88;2.05;;;;;;;;;;5011651;28;20395;-77
2022/07/23 11:26:37;;;;;;;4.47;3.00;;;;;;;;;;5027753;28;20079;-77
2022/07/23 11:29:37;;;;;;;4.85;2.88;;;;;;;;;;5015502;28;20032;-77
2022/07/23 11:32:21;;;;;;;3.45;2.30;;;;;;;;;;5013174;28;20033;-77
2022/07/23 11:34:49;;;;;;;5.30;3.20;;;;;;;;;;5014935;28;20088;-77
2022/07/23 11:37:35;;;;;;;5.10;2.90;;;;;;;;;;5016053;28;20052;-76
2022/07/23 11:40:05;;;;;;;5.05;2.30;;;;;;;;;;5016595;28;20026;-76
2022/07/23 11:42:31;;;;;;;4.88;3.17;;;;;;;;;;5011637;28;20027;-76
2022/07/23 11:44:57;;;;;;;5.32;3.20;;;;;;;;;;5013193;28;20026;-77
2022/07/23 11:47:26;;;;;;;5.43;3.03;;;;;;;;;;5014403;28;20080;-76
2022/07/23 11:49:57;;;;;;;4.15;2.63;;;;;;;;;;5016996;28;20014;-77
2022/07/23 11:52:24;;;;;;;4.47;2.97;;;;;;;;;;5008313;28;20541;-77
2022/07/23 11:54:52;;;;;;;5.05;2.60;;;;;;;;;;5012279;28;20018;-76
2022/07/23 11:57:19;;;;;;;4.63;2.15;;;;;;;;;;5016257;28;20033;-76
2022/07/23 11:59:53;;;;;;;3.40;2.17;;;;;;;;;;5015522;28;20429;-76
2022/07/23 12:02:19;;;;;;;2.80;1.90;;;;;;;;;;5015671;28;20118;-77
2022/07/23 12:04:47;;;;;;;3.63;2.40;;;;;;;;;;5010841;28;20390;-76
2022/07/23 12:07:33;;;;;;;3.63;2.10;;;;;;;;;;5016780;28;20089;-76
2022/07/23 12:10:00;;;;;;;3.45;1.63;;;;;;;;;;5018177;28;20037;-76
2022/07/23 12:12:26;;;;;;;4.60;2.35;;;;;;;;;;5014726;28;20109;-76
2022/07/23 12:14:54;;;;;;;3.97;2.35;;;;;;;;;;5014755;28;20132;-77
2022/07/23 12:17:21;;;;;;;4.18;2.28;;;;;;;;;;5013090;28;20029;-76
2022/07/23 12:19:48;;;;;;;4.05;2.20;;;;;;;;;;5014132;28;20080;-76
2022/07/23 12:22:16;;;;;;;2.47;1.75;;;;;;;;;;5012533;28;20026;-76
2022/07/23 12:24:57;;;;;;;4.72;2.20;;;;;;;;;;5015822;28;20025;-76
2022/07/23 12:27:24;;;;;;;2.90;1.60;;;;;;;;;;5014719;28;20566;-76
2022/07/23 12:29:52;;;;;;;4.15;1.80;;;;;;;;;;5014945;28;20025;-77
2022/07/23 12:32:23;;;;;;;4.18;1.92;;;;;;;;;;5012463;28;20068;-76
2022/07/23 12:34:50;;;;;;;3.00;2.00;;;;;;;;;;5012651;28;20096;-76
2022/07/23 12:37:33;;;;;;;3.65;2.00;;;;;;;;;;5015628;28;20030;-76
2022/07/23 12:40:17;;;;;;;6.18;2.80;;;;;;;;;;5011103;28;20120;-76
2022/07/23 12:42:43;;;;;;;4.57;1.90;;;;;;;;;;5017302;28;20505;-76
2022/07/23 12:45:11;;;;;;;2.50;1.70;;;;;;;;;;5012128;28;20038;-76
2022/07/23 12:48:08;;;;;;;3.72;2.35;;;;;;;;;;5014110;28;20108;-76
2022/07/23 12:50:41;;;;;;;6.15;2.47;;;;;;;;;;5012050;28;20104;-75
2022/07/23 12:53:14;;;;;;;3.95;2.00;;;;;;;;;;5014855;28;20529;-76
2022/07/23 12:55:39;;;;;;;;;;;;;;;;;;5013573;28;20017;-76
2022/07/23 12:58:15;;;;;;;2.70;1.65;;;;;;;;;;5015710;28;19917;-76
2022/07/23 13:01:03;;;;;;;4.75;2.13;;;;;;;;;;5010396;28;20026;-77
2022/07/23 13:03:34;;;;;;;5.20;2.08;;;;;;;;;;5010211;28;20038;-76
2022/07/23 13:06:00;;;;;;;4.63;1.80;;;;;;;;;;5012919;28;20033;-76
2022/07/23 13:08:27;;;;;;;4.80;2.03;;;;;;;;;;5014155;28;20056;-76
2022/07/23 13:10:53;;;;;;;3.85;2.08;;;;;;;;;;5014045;28;20084;-77
2022/07/23 13:13:26;;;;;;;4.32;1.90;;;;;;;;;;5011174;28;20033;-77
2022/07/23 13:15:52;;;;;;;4.05;1.70;;;;;;;;;;5011932;28;20022;-76
2022/07/23 13:18:19;;;;;;;3.70;2.03;;;;;;;;;;5011800;28;20088;-76
2022/07/23 13:20:46;;;;;;;4.80;1.90;;;;;;;;;;5009694;28;20069;-76
2022/07/23 13:23:11;;;;;;;3.33;1.95;;;;;;;;;;5010514;28;20466;-76
2022/07/23 13:25:37;;;;;;;4.25;1.98;;;;;;;;;;5011113;28;20030;-77
2022/07/23 13:28:03;;;;;;;4.45;2.05;;;;;;;;;;5012464;28;20025;-76
2022/07/23 13:30:28;;;;;;;3.38;2.15;;;;;;;;;;5015000;28;20450;-76
2022/07/23 13:32:54;;;;;;;4.57;1.98;;;;;;;;;;5012169;28;20055;-76
2022/07/23 13:35:19;;;;;;;3.50;2.13;;;;;;;;;;5012069;28;20132;-77
2022/07/23 13:37:44;;;;;;;4.47;2.35;;;;;;;;;;5013634;28;20099;-77
2022/07/23 13:40:10;;;;;;;4.05;2.50;;;;;;;;;;5011806;28;20033;-76
2022/07/23 13:42:37;;;;;;;3.90;2.50;;;;;;;;;;5010304;28;20018;-76
2022/07/23 13:45:04;;;;;;;4.30;2.30;;;;;;;;;;5013290;28;20017;-76
2022/07/23 13:47:30;;;;;;;3.90;2.30;;;;;;;;;;5011663;28;20398;-76
2022/07/23 13:49:56;;;;;;;3.97;2.20;;;;;;;;;;5013660;28;20029;-76
2022/07/23 13:52:21;;;;;;;4.03;2.33;;;;;;;;;;5011707;28;20113;-77
2022/07/23 13:54:46;;;;;;;3.10;2.10;;;;;;;;;;5011584;28;20032;-77
2022/07/23 13:57:12;;;;;;;3.28;2.30;;;;;;;;;;5012537;28;20382;-76
2022/07/23 13:59:37;;;;;;;3.92;2.30;;;;;;;;;;5012403;28;20036;-76
2022/07/23 14:02:03;;;;;;;4.22;2.17;;;;;;;;;;5011125;28;20018;-76
2022/07/23 14:04:29;;;;;;;3.78;2.10;;;;;;;;;;5013971;28;20036;-76
2022/07/23 14:06:54;;;;;;;4.40;2.17;;;;;;;;;;5010665;28;20112;-76
2022/07/23 14:09:20;;;;;;;4.88;2.55;;;;;;;;;;5013394;28;20036;-76
2022/07/23 14:11:45;;;;;;;4.13;2.22;;;;;;;;;;5013276;28;20118;-76
2022/07/23 14:14:10;;;;;;;3.67;1.88;;;;;;;;;;5013797;28;20383;-76
2022/07/23 14:16:36;;;;;;;4.20;1.85;;;;;;;;;;5012091;28;20040;-76
2022/07/23 14:19:02;;;;;;;5.15;1.90;;;;;;;;;;5011809;28;20443;-76
2022/07/23 14:21:27;;;;;;;7.35;3.20;;;;;;;;;;5012164;28;20190;-76
2022/07/23 14:23:53;;;;;;;3.60;2.45;;;;;;;;;;5011799;28;20131;-76
2022/07/23 14:26:18;;;;;;;5.25;2.65;;;;;;;;;;5012337;28;20049;-76
2022/07/23 14:28:44;;;;;;;4.65;2.65;;;;;;;;;;5005319;28;20446;-76
2022/07/23 14:31:09;;;;;;;5.57;2.83;;;;;;;;;;5011846;28;20032;-76
2022/07/23 14:33:35;;;;;;;5.45;2.85;;;;;;;;;;5008158;28;20490;-76
2022/07/23 14:36:00;;;;;;;3.70;2.30;;;;;;;;;;5011522;28;20157;-77
2022/07/23 14:38:26;;;;;;;8.95;3.95;;;;;;;;;;5009740;28;20021;-76
2022/07/23 14:40:51;;;;;;;5.20;3.30;;;;;;;;;;5013592;28;20057;-76
2022/07/23 14:43:17;;;;;;;4.97;2.78;;;;;;;;;;5012036;28;20111;-76
2022/07/23 14:45:42;;;;;;;3.72;2.50;;;;;;;;;;5012662;28;20029;-77
2022/07/23 14:48:08;;;;;;;8.30;2.42;;;;;;;;;;5011713;28;20029;-77